Oceana — OP3107 — position and weather

sailwx.info

Track history (hours):
 
Tides and Currents Weather Stations Pressure Air Temp Water Temp Dewpoint Dewpoint Depression Visibility Wind Speed Wind Dir Waves Ship Positions

Oceana

Last reported at 2018-May-20 03:22 UTC. Time now 2018-May-20 21:27 UTC.
Position S 33°50' E 151°16'.

Length 14 m.

Type: Sailing vessel. MMSI: 205310730.

Date/timePositionNaut miles runAvg speedWind from/ knotsBaromVisibWave heightAir tempDewpointWater temp
2018-May-20 03:22S 33°50' E 151°16'1 1.5
2018-May-20 02:52S 33°50' E 151°17'1 1.3
2018-May-20 02:28S 33°50' E 151°17'1 1.3
2018-May-20 02:00S 33°50' E 151°17'1 0.4
2018-May-19 22:03S 33°52' E 151°18'0 6.2
2018-May-19 21:58S 33°51' E 151°18'1 0.1
2018-May-19 07:30S 33°51' E 151°17'0 0.9
2018-May-19 07:00S 33°50' E 151°16'  
2018-May-11 13:25S 33°49' E 151°16'2 4.9
2018-May-11 13:00S 33°49' E 151°19'3 6.5
2018-May-11 12:30S 33°46' E 151°20'4 7.4
2018-May-11 12:00S 33°43' E 151°20'4 7.1
2018-May-11 11:29S 33°39' E 151°21'3 2.9
2018-May-11 10:20S 33°36' E 151°19'2 6.1
2018-May-11 10:00S 33°38' E 151°18'1 2.1
2018-May-11 09:30S 33°39' E 151°18'0 0.0
2018-May-11 09:00S 33°39' E 151°18'  
Track history (hours):
 
Tides and Currents Weather Stations Pressure Air Temp Water Temp Dewpoint Dewpoint Depression Visibility Wind Speed Wind Dir Waves Ship Positions

Oceana

Last reported at 2018-May-20 03:22 UTC. Time now 2018-May-20 21:27 UTC.
Position S 33°50' E 151°16'.

Length 14 m.

Type: Sailing vessel. MMSI: 205310730.

Date/timePositionNaut miles runAvg speedWind from/ knotsBaromVisibWave heightAir tempDewpointWater temp
2018-May-20 03:22S 33°50' E 151°16'1 1.5
2018-May-20 02:52S 33°50' E 151°17'1 1.3
2018-May-20 02:28S 33°50' E 151°17'1 1.3
2018-May-20 02:00S 33°50' E 151°17'1 0.4
2018-May-19 22:03S 33°52' E 151°18'0 6.2
2018-May-19 21:58S 33°51' E 151°18'1 0.1
2018-May-19 07:30S 33°51' E 151°17'0 0.9
2018-May-19 07:00S 33°50' E 151°16'  
2018-May-11 13:25S 33°49' E 151°16'2 4.9
2018-May-11 13:00S 33°49' E 151°19'3 6.5
2018-May-11 12:30S 33°46' E 151°20'4 7.4
2018-May-11 12:00S 33°43' E 151°20'4 7.1
2018-May-11 11:29S 33°39' E 151°21'3 2.9
2018-May-11 10:20S 33°36' E 151°19'2 6.1
2018-May-11 10:00S 33°38' E 151°18'1 2.1
2018-May-11 09:30S 33°39' E 151°18'0 0.0
2018-May-11 09:00S 33°39' E 151°18'  

Dump ship's entire track history